sensor_id;sensor_type;location;lat;lon;timestamp;pressure;altitude;pressure_sealevel;temperature;humidity
49943;BME280;36011;53.362;58.948;2023-08-01T00:01:39;96032.00;;;17.27;74.48
49943;BME280;36011;53.362;58.948;2023-08-01T00:04:42;96028.66;;;17.25;74.54
49943;BME280;36011;53.362;58.948;2023-08-01T00:07:45;96027.00;;;17.24;74.32
49943;BME280;36011;53.362;58.948;2023-08-01T00:10:48;96030.31;;;17.26;74.67
49943;BME280;36011;53.362;58.948;2023-08-01T00:13:52;96027.00;;;17.24;74.44
49943;BME280;36011;53.362;58.948;2023-08-01T00:16:56;96031.63;;;17.22;74.88
49943;BME280;36011;53.362;58.948;2023-08-01T00:19:58;96031.78;;;17.20;74.81
49943;BME280;36011;53.362;58.948;2023-08-01T00:23:02;96027.63;;;17.18;75.04
49943;BME280;36011;53.362;58.948;2023-08-01T00:26:06;96029.63;;;17.16;75.32
49943;BME280;36011;53.362;58.948;2023-08-01T00:29:08;96027.47;;;17.19;75.48
49943;BME280;36011;53.362;58.948;2023-08-01T00:32:11;96029.66;;;17.24;74.89
49943;BME280;36011;53.362;58.948;2023-08-01T00:35:15;96033.31;;;17.31;74.35
49943;BME280;36011;53.362;58.948;2023-08-01T00:38:18;96032.34;;;17.40;74.47
49943;BME280;36011;53.362;58.948;2023-08-01T00:41:21;96041.31;;;17.39;74.15
49943;BME280;36011;53.362;58.948;2023-08-01T00:44:25;96035.84;;;17.33;74.73
49943;BME280;36011;53.362;58.948;2023-08-01T00:47:29;96033.31;;;17.31;74.90
49943;BME280;36011;53.362;58.948;2023-08-01T00:50:32;96037.97;;;17.29;75.32
49943;BME280;36011;53.362;58.948;2023-08-01T00:53:39;96033.50;;;17.30;75.21
49943;BME280;36011;53.362;58.948;2023-08-01T00:56:42;96030.53;;;17.33;75.35
49943;BME280;36011;53.362;58.948;2023-08-01T00:59:47;96023.38;;;17.41;75.59
49943;BME280;36011;53.362;58.948;2023-08-01T01:02:50;96025.06;;;17.50;75.14
49943;BME280;36011;53.362;58.948;2023-08-01T01:06:02;96025.41;;;17.56;74.89
49943;BME280;36011;53.362;58.948;2023-08-01T01:09:17;96026.75;;;17.60;74.93
49943;BME280;36011;53.362;58.948;2023-08-01T01:12:21;96028.09;;;17.64;74.39
49943;BME280;36011;53.362;58.948;2023-08-01T01:15:25;96031.06;;;17.69;74.46
49943;BME280;36011;53.362;58.948;2023-08-01T01:18:28;96027.78;;;17.75;74.40
49943;BME280;36011;53.362;58.948;2023-08-01T01:21:29;96035.47;;;17.86;74.21
49943;BME280;36011;53.362;58.948;2023-08-01T01:24:30;96039.13;;;17.93;73.93
49943;BME280;36011;53.362;58.948;2023-08-01T01:27:34;96032.63;;;17.96;73.57
49943;BME280;36011;53.362;58.948;2023-08-01T01:30:36;96031.13;;;18.02;73.50
49943;BME280;36011;53.362;58.948;2023-08-01T01:33:41;96037.78;;;18.06;73.66
49943;BME280;36011;53.362;58.948;2023-08-01T01:36:42;96034.47;;;18.12;73.29
49943;BME280;36011;53.362;58.948;2023-08-01T01:39:46;96032.78;;;18.19;73.07
49943;BME280;36011;53.362;58.948;2023-08-01T01:42:47;96033.81;;;18.26;72.98
49943;BME280;36011;53.362;58.948;2023-08-01T01:45:50;96038.44;;;18.32;72.58
49943;BME280;36011;53.362;58.948;2023-08-01T01:48:53;96033.47;;;18.37;72.78
49943;BME280;36011;53.362;58.948;2023-08-01T01:51:56;96034.09;;;18.39;72.36
49943;BME280;36011;53.362;58.948;2023-08-01T01:54:57;96036.28;;;18.44;72.16
49943;BME280;36011;53.362;58.948;2023-08-01T01:58:03;96026.94;;;18.48;72.21
49943;BME280;36011;53.362;58.948;2023-08-01T02:01:06;96025.75;;;18.51;71.96
49943;BME280;36011;53.362;58.948;2023-08-01T02:04:10;96013.44;;;18.50;71.72
49943;BME280;36011;53.362;58.948;2023-08-01T02:07:11;96020.44;;;18.51;71.94
49943;BME280;36011;53.362;58.948;2023-08-01T02:10:15;96016.78;;;18.52;71.92
49943;BME280;36011;53.362;58.948;2023-08-01T02:13:18;96027.09;;;18.55;71.76
49943;BME280;36011;53.362;58.948;2023-08-01T02:16:19;96020.75;;;18.64;71.97
49943;BME280;36011;53.362;58.948;2023-08-01T02:19:21;96014.75;;;18.78;71.44
49943;BME280;36011;53.362;58.948;2023-08-01T02:22:24;96026.69;;;18.91;71.10
49943;BME280;36011;53.362;58.948;2023-08-01T02:25:28;96026.28;;;19.10;70.08
49943;BME280;36011;53.362;58.948;2023-08-01T02:28:29;96023.22;;;19.21;69.61
49943;BME280;36011;53.362;58.948;2023-08-01T02:31:30;96025.53;;;19.24;69.38
49943;BME280;36011;53.362;58.948;2023-08-01T02:34:32;96023.84;;;19.32;69.31
49943;BME280;36011;53.362;58.948;2023-08-01T02:37:33;96022.13;;;19.39;69.31
49943;BME280;36011;53.362;58.948;2023-08-01T02:40:34;96018.25;;;19.49;69.43
49943;BME280;36011;53.362;58.948;2023-08-01T02:43:38;96022.00;;;19.63;68.70
49943;BME280;36011;53.362;58.948;2023-08-01T02:46:43;96025.59;;;19.79;67.93
49943;BME280;36011;53.362;58.948;2023-08-01T02:49:44;96022.19;;;19.93;68.26
49943;BME280;36011;53.362;58.948;2023-08-01T02:52:48;96022.88;;;20.10;68.26
49943;BME280;36011;53.362;58.948;2023-08-01T02:55:53;96023.38;;;20.28;67.73
49943;BME280;36011;53.362;58.948;2023-08-01T02:58:54;96027.97;;;20.57;67.20
49943;BME280;36011;53.362;58.948;2023-08-01T03:01:59;96026.25;;;20.79;66.56
49943;BME280;36011;53.362;58.948;2023-08-01T03:05:02;96022.19;;;20.98;66.07
49943;BME280;36011;53.362;58.948;2023-08-01T03:08:07;96025.97;;;21.19;65.55
49943;BME280;36011;53.362;58.948;2023-08-01T03:11:11;96017.81;;;21.42;64.61
49943;BME280;36011;53.362;58.948;2023-08-01T03:14:17;96026.09;;;21.62;64.04
49943;BME280;36011;53.362;58.948;2023-08-01T03:17:22;96017.28;;;21.68;63.34
49943;BME280;36011;53.362;58.948;2023-08-01T03:20:26;96017.28;;;21.68;63.42
49943;BME280;36011;53.362;58.948;2023-08-01T03:23:31;96024.06;;;21.85;63.18
49943;BME280;36011;53.362;58.948;2023-08-01T03:26:38;96015.97;;;22.00;62.68
49943;BME280;36011;53.362;58.948;2023-08-01T03:29:39;96027.13;;;22.04;62.56
49943;BME280;36011;53.362;58.948;2023-08-01T03:32:45;96025.88;;;22.00;62.58
49943;BME280;36011;53.362;58.948;2023-08-01T03:35:46;96021.78;;;22.04;62.42
49943;BME280;36011;53.362;58.948;2023-08-01T03:38:47;96019.50;;;22.01;62.35
49943;BME280;36011;53.362;58.948;2023-08-01T03:41:52;96013.03;;;21.95;62.41
49943;BME280;36011;53.362;58.948;2023-08-01T03:44:58;96014.63;;;21.89;62.65
49943;BME280;36011;53.362;58.948;2023-08-01T03:48:01;96017.44;;;21.81;62.94
49943;BME280;36011;53.362;58.948;2023-08-01T03:51:05;96018.19;;;21.75;63.11
49943;BME280;36011;53.362;58.948;2023-08-01T03:54:06;96020.28;;;21.80;63.09
49943;BME280;36011;53.362;58.948;2023-08-01T03:57:09;96009.97;;;21.77;63.24
49943;BME280;36011;53.362;58.948;2023-08-01T04:00:15;96009.13;;;21.76;63.25
49943;BME280;36011;53.362;58.948;2023-08-01T04:03:19;96015.13;;;21.78;63.25
49943;BME280;36011;53.362;58.948;2023-08-01T04:06:22;96022.66;;;21.89;62.84
49943;BME280;36011;53.362;58.948;2023-08-01T04:09:25;96027.91;;;21.97;62.45
49943;BME280;36011;53.362;58.948;2023-08-01T04:12:29;96013.34;;;22.07;62.37
49943;BME280;36011;53.362;58.948;2023-08-01T04:15:32;96018.22;;;22.18;61.90
49943;BME280;36011;53.362;58.948;2023-08-01T04:18:34;96020.81;;;22.11;61.27
49943;BME280;36011;53.362;58.948;2023-08-01T04:21:37;96026.91;;;22.20;60.64
49943;BME280;36011;53.362;58.948;2023-08-01T04:24:42;96028.69;;;22.34;59.85
49943;BME280;36011;53.362;58.948;2023-08-01T04:27:43;96024.50;;;22.25;59.88
49943;BME280;36011;53.362;58.948;2023-08-01T04:30:49;96025.22;;;22.19;60.13
49943;BME280;36011;53.362;58.948;2023-08-01T04:33:53;96018.75;;;22.28;59.50
49943;BME280;36011;53.362;58.948;2023-08-01T04:36:54;96029.94;;;22.38;59.32
49943;BME280;36011;53.362;58.948;2023-08-01T04:39:58;96030.41;;;22.42;59.36
49943;BME280;36011;53.362;58.948;2023-08-01T04:43:02;96029.22;;;22.51;58.95
49943;BME280;36011;53.362;58.948;2023-08-01T04:46:06;96027.75;;;23.53;57.76
49943;BME280;36011;53.362;58.948;2023-08-01T04:49:06;96030.38;;;27.11;51.61
49943;BME280;36011;53.362;58.948;2023-08-01T04:52:10;96041.22;;;30.82;42.90
49943;BME280;36011;53.362;58.948;2023-08-01T04:55:11;96046.41;;;33.72;37.25
49943;BME280;36011;53.362;58.948;2023-08-01T04:58:14;96041.91;;;36.22;32.58
49943;BME280;36011;53.362;58.948;2023-08-01T05:01:18;96043.81;;;37.82;28.98
49943;BME280;36011;53.362;58.948;2023-08-01T05:04:19;96039.78;;;39.40;27.83
49943;BME280;36011;53.362;58.948;2023-08-01T05:07:22;96043.88;;;41.06;26.09
49943;BME280;36011;53.362;58.948;2023-08-01T05:10:26;96040.94;;;42.14;24.54
49943;BME280;36011;53.362;58.948;2023-08-01T05:13:30;96036.34;;;41.21;25.98
49943;BME280;36011;53.362;58.948;2023-08-01T05:16:34;96047.13;;;40.86;26.12
49943;BME280;36011;53.362;58.948;2023-08-01T05:19:37;96044.09;;;40.74;23.67
49943;BME280;36011;53.362;58.948;2023-08-01T05:22:41;96040.47;;;40.65;24.33
49943;BME280;36011;53.362;58.948;2023-08-01T05:25:42;96054.78;;;42.31;21.04
49943;BME280;36011;53.362;58.948;2023-08-01T05:28:49;96051.66;;;43.37;19.18
49943;BME280;36011;53.362;58.948;2023-08-01T05:31:51;96047.41;;;45.21;17.38
49943;BME280;36011;53.362;58.948;2023-08-01T05:34:54;96052.84;;;46.65;18.69
49943;BME280;36011;53.362;58.948;2023-08-01T05:37:56;96053.44;;;47.11;16.97
49943;BME280;36011;53.362;58.948;2023-08-01T05:41:02;96053.75;;;47.69;16.21
49943;BME280;36011;53.362;58.948;2023-08-01T05:44:08;96051.34;;;47.84;15.86
49943;BME280;36011;53.362;58.948;2023-08-01T05:47:12;96045.38;;;48.01;15.01
49943;BME280;36011;53.362;58.948;2023-08-01T05:50:17;96043.63;;;48.83;14.44
49943;BME280;36011;53.362;58.948;2023-08-01T05:53:23;96032.88;;;50.73;13.03
49943;BME280;36011;53.362;58.948;2023-08-01T05:56:29;96036.84;;;51.36;13.70
49943;BME280;36011;53.362;58.948;2023-08-01T05:59:33;96033.44;;;52.05;13.17
49943;BME280;36011;53.362;58.948;2023-08-01T06:02:34;96042.53;;;52.50;13.31
49943;BME280;36011;53.362;58.948;2023-08-01T06:05:39;96030.06;;;51.03;14.45
49943;BME280;36011;53.362;58.948;2023-08-01T06:08:42;96028.13;;;49.05;14.70
49943;BME280;36011;53.362;58.948;2023-08-01T06:11:47;96029.38;;;48.69;16.52
49943;BME280;36011;53.362;58.948;2023-08-01T06:15:07;96016.09;;;46.31;16.43
49943;BME280;36011;53.362;58.948;2023-08-01T06:18:10;96012.75;;;43.72;18.94
49943;BME280;36011;53.362;58.948;2023-08-01T06:21:16;96008.63;;;41.66;20.00
49943;BME280;36011;53.362;58.948;2023-08-01T06:24:22;96007.63;;;40.18;20.09
49943;BME280;36011;53.362;58.948;2023-08-01T06:27:23;96004.06;;;40.17;20.14
49943;BME280;36011;53.362;58.948;2023-08-01T06:30:32;96013.81;;;43.88;17.19
49943;BME280;36011;53.362;58.948;2023-08-01T06:33:33;96022.41;;;48.24;14.17
49943;BME280;36011;53.362;58.948;2023-08-01T06:36:38;96019.94;;;50.08;12.79
49943;BME280;36011;53.362;58.948;2023-08-01T06:39:40;96021.91;;;50.30;13.07
49943;BME280;36011;53.362;58.948;2023-08-01T06:42:46;96033.84;;;51.62;12.04
49943;BME280;36011;53.362;58.948;2023-08-01T06:45:50;96026.91;;;51.49;11.83
49943;BME280;36011;53.362;58.948;2023-08-01T06:48:54;96034.00;;;53.09;11.93
49943;BME280;36011;53.362;58.948;2023-08-01T06:52:00;96027.78;;;51.53;11.08
49943;BME280;36011;53.362;58.948;2023-08-01T06:55:03;96037.50;;;50.92;12.11
49943;BME280;36011;53.362;58.948;2023-08-01T06:58:06;96025.66;;;50.15;11.68
49943;BME280;36011;53.362;58.948;2023-08-01T07:01:08;96017.59;;;49.60;12.91
49943;BME280;36011;53.362;58.948;2023-08-01T07:04:12;96018.22;;;47.35;13.86
49943;BME280;36011;53.362;58.948;2023-08-01T07:07:16;96020.03;;;47.75;13.19
49943;BME280;36011;53.362;58.948;2023-08-01T07:10:21;96005.84;;;48.31;13.09
49943;BME280;36011;53.362;58.948;2023-08-01T07:13:25;96014.72;;;48.17;13.65
49943;BME280;36011;53.362;58.948;2023-08-01T07:16:28;96005.00;;;49.05;12.48
49943;BME280;36011;53.362;58.948;2023-08-01T07:19:33;96010.81;;;49.38;12.33
49943;BME280;36011;53.362;58.948;2023-08-01T07:22:38;96010.41;;;51.37;11.56
49943;BME280;36011;53.362;58.948;2023-08-01T07:25:39;96009.56;;;51.81;11.68
49943;BME280;36011;53.362;58.948;2023-08-01T07:28:43;96020.53;;;51.52;11.10
49943;BME280;36011;53.362;58.948;2023-08-01T07:31:49;96013.53;;;51.32;11.89
49943;BME280;36011;53.362;58.948;2023-08-01T07:34:53;96016.22;;;52.83;10.35
49943;BME280;36011;53.362;58.948;2023-08-01T07:37:56;96003.75;;;52.70;10.12
49943;BME280;36011;53.362;58.948;2023-08-01T07:41:01;96014.78;;;51.79;10.92
49943;BME280;36011;53.362;58.948;2023-08-01T07:44:03;96014.25;;;52.18;11.02
49943;BME280;36011;53.362;58.948;2023-08-01T07:47:07;96012.25;;;52.99;10.71
49943;BME280;36011;53.362;58.948;2023-08-01T07:50:13;96009.56;;;53.34;10.39
49943;BME280;36011;53.362;58.948;2023-08-01T07:53:14;96017.06;;;52.94;10.33
49943;BME280;36011;53.362;58.948;2023-08-01T07:56:18;96009.88;;;53.08;10.37
49943;BME280;36011;53.362;58.948;2023-08-01T07:59:20;96007.44;;;52.95;9.86
49943;BME280;36011;53.362;58.948;2023-08-01T08:02:23;96021.31;;;51.97;10.74
49943;BME280;36011;53.362;58.948;2023-08-01T08:05:27;96011.91;;;50.03;11.92
49943;BME280;36011;53.362;58.948;2023-08-01T08:08:31;96009.25;;;47.26;13.49
49943;BME280;36011;53.362;58.948;2023-08-01T08:11:36;95996.63;;;45.45;14.85
49943;BME280;36011;53.362;58.948;2023-08-01T08:14:40;95994.06;;;44.83;14.99
49943;BME280;36011;53.362;58.948;2023-08-01T08:17:46;96006.25;;;45.02;15.20
49943;BME280;36011;53.362;58.948;2023-08-01T08:20:52;96012.34;;;46.40;14.01
49943;BME280;36011;53.362;58.948;2023-08-01T08:23:53;95998.63;;;45.12;14.79
49943;BME280;36011;53.362;58.948;2023-08-01T08:26:59;95998.38;;;43.40;16.36
49943;BME280;36011;53.362;58.948;2023-08-01T08:30:03;95990.53;;;44.31;15.44
49943;BME280;36011;53.362;58.948;2023-08-01T08:33:05;95999.78;;;45.56;14.80
49943;BME280;36011;53.362;58.948;2023-08-01T08:36:09;95999.88;;;46.09;14.40
49943;BME280;36011;53.362;58.948;2023-08-01T08:39:13;96012.47;;;46.99;13.61
49943;BME280;36011;53.362;58.948;2023-08-01T08:42:17;96008.59;;;45.58;14.40
49943;BME280;36011;53.362;58.948;2023-08-01T08:45:20;96008.06;;;44.86;15.12
49943;BME280;36011;53.362;58.948;2023-08-01T08:48:22;96025.75;;;45.73;14.49
49943;BME280;36011;53.362;58.948;2023-08-01T08:51:28;95990.47;;;46.26;14.03
49943;BME280;36011;53.362;58.948;2023-08-01T08:54:32;96009.59;;;47.40;13.19
49943;BME280;36011;53.362;58.948;2023-08-01T08:57:35;96016.94;;;47.16;12.92
49943;BME280;36011;53.362;58.948;2023-08-01T09:00:42;96003.94;;;46.64;13.69
49943;BME280;36011;53.362;58.948;2023-08-01T09:03:47;95996.41;;;46.93;13.10
49943;BME280;36011;53.362;58.948;2023-08-01T09:06:51;96000.94;;;46.57;13.49
49943;BME280;36011;53.362;58.948;2023-08-01T09:09:54;95992.19;;;47.43;12.54
49943;BME280;36011;53.362;58.948;2023-08-01T09:12:56;96008.63;;;48.31;12.61
49943;BME280;36011;53.362;58.948;2023-08-01T09:16:00;96005.09;;;48.15;12.24
49943;BME280;36011;53.362;58.948;2023-08-01T09:19:05;95998.13;;;47.57;13.08
49943;BME280;36011;53.362;58.948;2023-08-01T09:22:12;95999.13;;;47.49;12.65
49943;BME280;36011;53.362;58.948;2023-08-01T09:25:17;96008.56;;;46.72;13.34
49943;BME280;36011;53.362;58.948;2023-08-01T09:28:24;96018.19;;;46.75;13.42
49943;BME280;36011;53.362;58.948;2023-08-01T09:31:27;96010.25;;;46.49;12.84
49943;BME280;36011;53.362;58.948;2023-08-01T09:34:34;95996.19;;;45.68;13.74
49943;BME280;36011;53.362;58.948;2023-08-01T09:37:39;96000.13;;;45.09;14.20
49943;BME280;36011;53.362;58.948;2023-08-01T09:40:44;96002.66;;;45.47;13.82
49943;BME280;36011;53.362;58.948;2023-08-01T09:43:48;96005.00;;;45.70;13.60
49943;BME280;36011;53.362;58.948;2023-08-01T09:47:00;95993.28;;;45.40;13.65
49943;BME280;36011;53.362;58.948;2023-08-01T09:50:01;95987.13;;;45.22;13.65
49943;BME280;36011;53.362;58.948;2023-08-01T09:53:08;95986.25;;;45.67;13.50
49943;BME280;36011;53.362;58.948;2023-08-01T09:56:09;95980.25;;;45.53;13.49
49943;BME280;36011;53.362;58.948;2023-08-01T09:59:15;95961.16;;;45.06;14.23
49943;BME280;36011;53.362;58.948;2023-08-01T10:02:24;95969.94;;;44.41;14.37
49943;BME280;36011;53.362;58.948;2023-08-01T10:05:29;95969.81;;;43.87;15.13
49943;BME280;36011;53.362;58.948;2023-08-01T10:08:33;95962.47;;;43.61;14.78
49943;BME280;36011;53.362;58.948;2023-08-01T10:11:37;95965.13;;;43.49;15.31
49943;BME280;36011;53.362;58.948;2023-08-01T10:14:42;95977.63;;;44.14;14.87
49943;BME280;36011;53.362;58.948;2023-08-01T10:17:43;95979.28;;;43.86;14.96
49943;BME280;36011;53.362;58.948;2023-08-01T10:20:47;95979.66;;;43.76;14.87
49943;BME280;36011;53.362;58.948;2023-08-01T10:23:49;95965.88;;;43.20;15.15
49943;BME280;36011;53.362;58.948;2023-08-01T10:26:52;95956.25;;;42.44;16.19
49943;BME280;36011;53.362;58.948;2023-08-01T10:29:59;95962.81;;;41.65;16.71
49943;BME280;36011;53.362;58.948;2023-08-01T10:33:06;95953.47;;;40.81;17.38
49943;BME280;36011;53.362;58.948;2023-08-01T10:39:20;95947.56;;;40.06;18.74
49943;BME280;36011;53.362;58.948;2023-08-01T10:42:36;95951.97;;;40.30;17.88
49943;BME280;36011;53.362;58.948;2023-08-01T10:45:40;95950.63;;;39.91;18.48
49943;BME280;36011;53.362;58.948;2023-08-01T10:48:50;95956.47;;;39.20;19.39
49943;BME280;36011;53.362;58.948;2023-08-01T10:51:53;95951.97;;;38.64;19.99
49943;BME280;36011;53.362;58.948;2023-08-01T10:55:00;95968.97;;;38.14;20.93
49943;BME280;36011;53.362;58.948;2023-08-01T10:58:04;95974.56;;;37.66;20.99
49943;BME280;36011;53.362;58.948;2023-08-01T11:01:10;95959.53;;;37.11;21.94
49943;BME280;36011;53.362;58.948;2023-08-01T11:04:21;95970.44;;;36.57;22.26
49943;BME280;36011;53.362;58.948;2023-08-01T11:07:23;95977.88;;;36.86;22.02
49943;BME280;36011;53.362;58.948;2023-08-01T11:10:28;95972.19;;;36.77;22.32
49943;BME280;36011;53.362;58.948;2023-08-01T11:13:29;95970.94;;;36.25;22.64
49943;BME280;36011;53.362;58.948;2023-08-01T11:16:32;95970.47;;;35.63;23.35
49943;BME280;36011;53.362;58.948;2023-08-01T11:19:38;95965.63;;;35.45;23.32
49943;BME280;36011;53.362;58.948;2023-08-01T11:22:54;95973.75;;;35.55;23.69
49943;BME280;36011;53.362;58.948;2023-08-01T11:25:55;95963.25;;;35.18;23.16
49943;BME280;36011;53.362;58.948;2023-08-01T11:29:02;95959.22;;;34.79;23.83
49943;BME280;36011;53.362;58.948;2023-08-01T11:32:07;95961.41;;;34.62;23.97
49943;BME280;36011;53.362;58.948;2023-08-01T11:35:08;95952.13;;;34.42;24.36
49943;BME280;36011;53.362;58.948;2023-08-01T11:38:09;95953.19;;;34.36;24.54
49943;BME280;36011;53.362;58.948;2023-08-01T11:41:11;95939.75;;;33.94;25.13
49943;BME280;36011;53.362;58.948;2023-08-01T11:44:14;95937.28;;;33.72;25.69
49943;BME280;36011;53.362;58.948;2023-08-01T11:47:18;95945.88;;;33.43;26.41
49943;BME280;36011;53.362;58.948;2023-08-01T11:50:22;95934.25;;;33.05;26.99
49943;BME280;36011;53.362;58.948;2023-08-01T11:53:29;95950.63;;;32.68;27.50
49943;BME280;36011;53.362;58.948;2023-08-01T11:56:35;95952.50;;;32.62;27.29
49943;BME280;36011;53.362;58.948;2023-08-01T11:59:45;95938.94;;;32.03;27.78
49943;BME280;36011;53.362;58.948;2023-08-01T12:02:49;95952.84;;;31.85;27.83
49943;BME280;36011;53.362;58.948;2023-08-01T12:05:50;95951.44;;;32.04;27.62
49943;BME280;36011;53.362;58.948;2023-08-01T12:08:53;95959.81;;;31.97;27.52
49943;BME280;36011;53.362;58.948;2023-08-01T12:11:58;95951.00;;;31.90;27.61
49943;BME280;36011;53.362;58.948;2023-08-01T12:15:02;95960.28;;;32.16;27.42
49943;BME280;36011;53.362;58.948;2023-08-01T12:18:03;95960.03;;;32.50;27.05
49943;BME280;36011;53.362;58.948;2023-08-01T12:21:05;95959.75;;;32.89;26.98
49943;BME280;36011;53.362;58.948;2023-08-01T12:24:06;95972.97;;;33.07;26.70
49943;BME280;36011;53.362;58.948;2023-08-01T12:27:10;95968.84;;;32.62;27.10
49943;BME280;36011;53.362;58.948;2023-08-01T12:30:13;95963.59;;;32.93;26.74
49943;BME280;36011;53.362;58.948;2023-08-01T12:33:16;95958.44;;;32.97;26.40
49943;BME280;36011;53.362;58.948;2023-08-01T12:36:21;95971.03;;;33.56;25.99
49943;BME280;36011;53.362;58.948;2023-08-01T12:39:22;95970.25;;;33.65;25.54
49943;BME280;36011;53.362;58.948;2023-08-01T12:42:24;95962.19;;;32.48;26.41
49943;BME280;36011;53.362;58.948;2023-08-01T12:45:28;95957.94;;;31.10;27.83
49943;BME280;36011;53.362;58.948;2023-08-01T12:48:34;95959.50;;;30.33;28.67
49943;BME280;36011;53.362;58.948;2023-08-01T12:51:38;95953.66;;;30.25;29.28
49943;BME280;36011;53.362;58.948;2023-08-01T12:54:40;95957.69;;;30.22;29.23
49943;BME280;36011;53.362;58.948;2023-08-01T12:57:41;95942.69;;;30.03;29.43
49943;BME280;36011;53.362;58.948;2023-08-01T13:00:45;95949.31;;;30.24;29.23
49943;BME280;36011;53.362;58.948;2023-08-01T13:03:46;95947.00;;;30.49;28.63
49943;BME280;36011;53.362;58.948;2023-08-01T13:06:48;95938.28;;;30.47;28.51
49943;BME280;36011;53.362;58.948;2023-08-01T13:09:50;95941.91;;;30.53;28.77
49943;BME280;36011;53.362;58.948;2023-08-01T13:12:53;95936.66;;;30.46;29.78
49943;BME280;36011;53.362;58.948;2023-08-01T13:15:55;95942.47;;;30.21;30.30
49943;BME280;36011;53.362;58.948;2023-08-01T13:18:59;95940.91;;;29.51;30.83
49943;BME280;36011;53.362;58.948;2023-08-01T13:22:00;95938.28;;;29.16;31.82
49943;BME280;36011;53.362;58.948;2023-08-01T13:25:07;95934.56;;;28.93;31.93
49943;BME280;36011;53.362;58.948;2023-08-01T13:28:13;95933.03;;;28.97;31.56
49943;BME280;36011;53.362;58.948;2023-08-01T13:31:14;95941.41;;;29.07;31.54
49943;BME280;36011;53.362;58.948;2023-08-01T13:34:19;95936.09;;;28.89;31.57
49943;BME280;36011;53.362;58.948;2023-08-01T13:37:20;95932.13;;;28.56;31.95
49943;BME280;36011;53.362;58.948;2023-08-01T13:40:24;95927.47;;;28.21;32.56
49943;BME280;36011;53.362;58.948;2023-08-01T13:43:25;95930.28;;;28.03;32.67
49943;BME280;36011;53.362;58.948;2023-08-01T13:46:26;95938.19;;;27.74;33.23
49943;BME280;36011;53.362;58.948;2023-08-01T13:49:29;95942.31;;;27.47;33.45
49943;BME280;36011;53.362;58.948;2023-08-01T13:52:30;95947.34;;;27.43;33.94
49943;BME280;36011;53.362;58.948;2023-08-01T13:55:32;95952.97;;;27.42;33.59
49943;BME280;36011;53.362;58.948;2023-08-01T13:58:33;95953.47;;;27.50;33.69
49943;BME280;36011;53.362;58.948;2023-08-01T14:01:34;95961.06;;;27.60;33.99
49943;BME280;36011;53.362;58.948;2023-08-01T14:04:38;95967.66;;;27.46;33.98
49943;BME280;36011;53.362;58.948;2023-08-01T14:07:40;95969.84;;;27.00;34.39
49943;BME280;36011;53.362;58.948;2023-08-01T14:10:44;95972.91;;;26.85;34.92
49943;BME280;36011;53.362;58.948;2023-08-01T14:13:45;95973.56;;;26.62;35.37
49943;BME280;36011;53.362;58.948;2023-08-01T14:16:49;95971.63;;;26.45;35.39
49943;BME280;36011;53.362;58.948;2023-08-01T14:19:52;95983.81;;;26.54;36.29
49943;BME280;36011;53.362;58.948;2023-08-01T14:22:53;95987.16;;;26.74;36.64
49943;BME280;36011;53.362;58.948;2023-08-01T14:25:54;95991.53;;;26.94;36.77
49943;BME280;36011;53.362;58.948;2023-08-01T14:29:03;95991.06;;;26.97;37.17
49943;BME280;36011;53.362;58.948;2023-08-01T14:32:06;95997.91;;;26.99;37.63
49943;BME280;36011;53.362;58.948;2023-08-01T14:35:10;96011.59;;;26.79;37.84
49943;BME280;36011;53.362;58.948;2023-08-01T14:38:15;96012.22;;;26.56;38.09
49943;BME280;36011;53.362;58.948;2023-08-01T14:41:21;96022.81;;;26.26;38.18
49943;BME280;36011;53.362;58.948;2023-08-01T14:44:22;96030.41;;;26.11;39.08
49943;BME280;36011;53.362;58.948;2023-08-01T14:47:26;96031.16;;;25.86;39.33
49943;BME280;36011;53.362;58.948;2023-08-01T14:50:29;96027.03;;;25.77;39.37
49943;BME280;36011;53.362;58.948;2023-08-01T14:53:34;96024.84;;;25.61;39.63
49943;BME280;36011;53.362;58.948;2023-08-01T14:56:35;96030.50;;;25.39;40.68
49943;BME280;36011;53.362;58.948;2023-08-01T14:59:39;96021.88;;;25.10;41.22
49943;BME280;36011;53.362;58.948;2023-08-01T15:02:41;96022.78;;;24.64;41.52
49943;BME280;36011;53.362;58.948;2023-08-01T15:05:42;96028.75;;;24.40;41.81
49943;BME280;36011;53.362;58.948;2023-08-01T15:08:44;96026.69;;;24.22;41.98
49943;BME280;36011;53.362;58.948;2023-08-01T15:11:45;96035.59;;;24.16;42.17
49943;BME280;36011;53.362;58.948;2023-08-01T15:14:49;96042.38;;;24.05;43.04
49943;BME280;36011;53.362;58.948;2023-08-01T15:17:51;96038.19;;;23.83;43.19
49943;BME280;36011;53.362;58.948;2023-08-01T15:20:53;96039.75;;;23.57;43.64
49943;BME280;36011;53.362;58.948;2023-08-01T15:23:57;96046.69;;;23.38;44.06
49943;BME280;36011;53.362;58.948;2023-08-01T15:26:57;96050.97;;;23.26;43.69
49943;BME280;36011;53.362;58.948;2023-08-01T15:30:01;96046.22;;;23.21;43.82
49943;BME280;36011;53.362;58.948;2023-08-01T15:33:03;96047.38;;;23.12;44.01
49943;BME280;36011;53.362;58.948;2023-08-01T15:36:06;96046.53;;;23.05;44.34
49943;BME280;36011;53.362;58.948;2023-08-01T15:39:09;96045.25;;;23.01;44.35
49943;BME280;36011;53.362;58.948;2023-08-01T15:42:16;96044.38;;;22.94;44.34
49943;BME280;36011;53.362;58.948;2023-08-01T15:45:20;96047.22;;;22.85;44.56
49943;BME280;36011;53.362;58.948;2023-08-01T15:48:21;96053.97;;;22.81;44.34
49943;BME280;36011;53.362;58.948;2023-08-01T15:51:22;96054.50;;;22.70;43.91
49943;BME280;36011;53.362;58.948;2023-08-01T15:54:28;96054.91;;;22.67;44.10
49943;BME280;36011;53.362;58.948;2023-08-01T15:57:29;96049.09;;;22.63;44.51
49943;BME280;36011;53.362;58.948;2023-08-01T16:00:30;96054.22;;;22.58;44.90
49943;BME280;36011;53.362;58.948;2023-08-01T16:03:36;96052.72;;;22.49;44.79